Time;durP1;ratioP1;P1;durP2;ratioP2;P2;SDS_P1;SDS_P2;PMS_P1;PMS_P2;Temp;Humidity;BMP_temperature;BMP_pressure;BME280_temperature;BME280_humidity;BME280_pressure;Samples;Min_cycle;Max_cycle;Signal;HPM_P1;HPM_P2
2023/09/07 00:01:00;;;;;;;34.87;32.97;;;25.00;96.20;;;;;;5030982;28;20473;-50
2023/09/07 00:03:27;;;;;;;35.57;33.77;;;25.00;96.20;;;;;;5030478;28;20449;-52
2023/09/07 00:05:54;;;;;;;37.43;35.37;;;24.90;96.10;;;;;;5031021;28;20473;-49
2023/09/07 00:08:21;;;;;;;34.53;32.83;;;24.90;96.10;;;;;;5031158;28;20504;-52
2023/09/07 00:10:48;;;;;;;35.77;33.80;;;24.90;96.20;;;;;;5031268;28;20491;-48
2023/09/07 00:13:15;;;;;;;35.97;34.07;;;24.90;96.30;;;;;;5030297;28;20476;-52
2023/09/07 00:15:41;;;;;;;35.77;34.10;;;24.90;96.30;;;;;;5030891;28;20461;-53
2023/09/07 00:18:10;;;;;;;35.17;33.47;;;24.80;96.10;;;;;;5030745;28;20579;-51
2023/09/07 00:20:38;;;;;;;36.07;34.27;;;24.80;96.20;;;;;;5032541;28;20949;-49
2023/09/07 00:23:05;;;;;;;36.23;34.23;;;24.80;96.50;;;;;;5033902;28;20980;-49
2023/09/07 00:25:32;;;;;;;35.33;33.43;;;24.70;96.10;;;;;;5034441;28;20913;-51
2023/09/07 00:27:59;;;;;;;35.70;33.93;;;24.70;96.10;;;;;;5034487;28;20461;-51
2023/09/07 00:30:27;;;;;;;36.97;35.07;;;24.70;96.10;;;;;;5034398;28;20500;-53
2023/09/07 00:32:54;;;;;;;34.97;33.27;;;24.70;96.10;;;;;;5032816;28;20445;-52
2023/09/07 00:35:22;;;;;;;34.57;32.97;;;24.70;96.10;;;;;;5034327;28;20468;-51
2023/09/07 00:37:49;;;;;;;35.10;33.40;;;24.70;96.30;;;;;;5034257;28;20878;-50
2023/09/07 00:40:16;;;;;;;36.43;34.63;;;24.70;96.20;;;;;;5034283;28;20957;-53
2023/09/07 00:42:42;;;;;;;35.90;33.90;;;24.60;96.30;;;;;;5026549;28;20884;-52
2023/09/07 00:45:10;;;;;;;34.43;32.73;;;24.60;96.30;;;;;;5033834;28;20535;-49
2023/09/07 00:47:37;;;;;;;36.53;34.73;;;24.60;96.00;;;;;;5034004;28;20492;-52
2023/09/07 00:50:05;;;;;;;35.63;33.80;;;24.60;96.00;;;;;;5033800;28;20986;-48
2023/09/07 00:52:35;;;;;;;35.60;33.70;;;24.60;96.20;;;;;;5033533;28;20492;-50
2023/09/07 00:55:04;;;;;;;35.20;33.30;;;24.60;96.50;;;;;;5033879;28;20500;-48
2023/09/07 00:57:30;;;;;;;37.07;35.27;;;24.60;96.40;;;;;;5033919;28;20794;-48
2023/09/07 00:59:57;;;;;;;35.17;33.37;;;24.50;96.40;;;;;;5029542;28;20497;-49
2023/09/07 01:02:25;;;;;;;36.20;34.00;;;24.50;96.50;;;;;;5030361;28;20869;-54
2023/09/07 01:04:53;;;;;;;34.80;33.10;;;24.50;96.60;;;;;;5033865;28;20937;-53
2023/09/07 01:07:24;;;;;;;34.53;32.83;;;24.50;96.70;;;;;;5033696;28;20507;-52
2023/09/07 01:09:57;;;;;;;39.60;37.70;;;24.40;96.60;;;;;;5031445;28;20484;-51
2023/09/07 01:12:23;;;;;;;34.93;33.23;;;24.40;96.90;;;;;;5027930;28;20477;-48
2023/09/07 01:14:51;;;;;;;35.33;33.50;;;24.40;96.90;;;;;;5033496;28;20459;-51
2023/09/07 01:17:18;;;;;;;35.03;33.03;;;24.40;96.90;;;;;;5033354;28;20489;-51
2023/09/07 01:19:46;;;;;;;35.53;33.53;;;24.30;96.80;;;;;;5032774;28;20872;-52
2023/09/07 01:22:15;;;;;;;35.60;33.80;;;24.30;96.80;;;;;;5033155;28;20482;-49
2023/09/07 01:24:43;;;;;;;36.07;34.37;;;24.30;97.00;;;;;;5033486;28;20871;-51
2023/09/07 01:27:10;;;;;;;34.93;33.23;;;24.30;97.20;;;;;;5033235;28;20482;-50
2023/09/07 01:29:37;;;;;;;34.17;32.37;;;24.30;97.30;;;;;;5032930;28;20785;-50
2023/09/07 01:32:05;;;;;;;34.47;32.77;;;24.30;97.20;;;;;;5032413;28;20436;-52
2023/09/07 01:34:32;;;;;;;33.77;32.07;;;24.30;97.40;;;;;;5033524;28;20468;-52
2023/09/07 01:36:59;;;;;;;35.70;33.90;;;24.20;97.30;;;;;;5033120;28;20488;-54
2023/09/07 01:39:27;;;;;;;36.00;34.00;;;24.20;97.20;;;;;;5024594;28;20862;-52
2023/09/07 01:41:54;;;;;;;34.47;32.60;;;24.20;97.00;;;;;;5028570;28;20437;-49
2023/09/07 01:44:21;;;;;;;34.10;32.50;;;24.20;97.30;;;;;;5032948;28;20465;-52
2023/09/07 01:46:48;;;;;;;35.73;33.93;;;24.20;97.30;;;;;;5032712;28;21078;-52
2023/09/07 01:49:14;;;;;;;35.40;33.73;;;24.20;97.40;;;;;;5033054;28;20860;-50
2023/09/07 01:51:42;;;;;;;35.07;33.23;;;24.10;97.10;;;;;;5031606;28;20528;-51
2023/09/07 01:54:09;;;;;;;34.17;32.57;;;24.10;97.10;;;;;;5032687;28;20448;-49
2023/09/07 01:56:41;;;;;;;34.77;33.17;;;24.10;97.20;;;;;;5032754;28;20437;-52
2023/09/07 01:59:08;;;;;;;35.20;33.50;;;24.10;97.20;;;;;;5032627;28;20446;-50
2023/09/07 02:01:37;;;;;;;34.10;32.30;;;24.10;97.00;;;;;;5031840;28;20960;-49
2023/09/07 02:04:04;;;;;;;34.07;32.27;;;24.10;97.00;;;;;;5032458;28;20441;-53
2023/09/07 02:06:31;;;;;;;34.93;33.13;;;24.10;97.00;;;;;;5032552;28;20551;-52
2023/09/07 02:08:58;;;;;;;35.67;33.97;;;24.10;97.10;;;;;;5032625;28;20527;-50
2023/09/07 02:11:25;;;;;;;34.90;33.20;;;24.10;97.10;;;;;;5032268;28;20473;-48
2023/09/07 02:13:53;;;;;;;34.57;32.87;;;24.00;97.30;;;;;;5032306;28;20469;-50
2023/09/07 02:16:20;;;;;;;34.73;33.13;;;24.00;96.90;;;;;;5031594;28;20469;-51
2023/09/07 02:18:51;;;;;;;35.43;33.63;;;24.00;96.80;;;;;;5089408;22;20570;-51
2023/09/07 02:21:18;;;;;;;35.67;34.07;;;24.00;97.00;;;;;;5051925;28;20468;-52
2023/09/07 02:23:45;;;;;;;34.67;32.97;;;24.00;96.90;;;;;;5051995;28;20464;-49
2023/09/07 02:26:11;;;;;;;34.77;33.07;;;24.00;96.90;;;;;;5051905;28;20482;-54
2023/09/07 02:28:38;;;;;;;35.60;33.80;;;24.00;97.00;;;;;;5051572;28;20472;-49
2023/09/07 02:31:08;;;;;;;34.00;32.40;;;24.00;97.10;;;;;;5051692;28;20903;-50
2023/09/07 02:33:35;;;;;;;35.20;33.40;;;23.90;97.10;;;;;;5051894;28;20474;-50
2023/09/07 02:36:02;;;;;;;35.40;33.70;;;23.90;97.00;;;;;;5051910;28;20437;-49
2023/09/07 02:38:30;;;;;;;34.97;33.37;;;23.90;97.10;;;;;;5045060;28;20518;-49
2023/09/07 02:40:57;;;;;;;35.40;33.50;;;23.90;97.30;;;;;;5051223;28;20935;-49
2023/09/07 02:43:24;;;;;;;35.13;33.43;;;23.90;96.80;;;;;;5050787;28;20460;-49
2023/09/07 02:45:51;;;;;;;34.60;32.80;;;23.90;96.80;;;;;;5051610;28;20507;-52
2023/09/07 02:48:19;;;;;;;35.23;33.53;;;23.90;96.80;;;;;;5051538;28;20503;-49
2023/09/07 02:50:48;;;;;;;34.37;32.70;;;23.90;96.70;;;;;;5051707;28;20448;-50
2023/09/07 02:53:15;;;;;;;33.17;31.53;;;23.90;96.70;;;;;;5051270;28;20817;-49
2023/09/07 02:55:42;;;;;;;34.73;32.93;;;23.80;96.80;;;;;;5051542;28;20968;-52
2023/09/07 02:58:09;;;;;;;37.07;35.27;;;23.80;96.60;;;;;;5051108;28;20496;-49
2023/09/07 03:00:41;;;;;;;35.33;33.43;;;23.80;96.60;;;;;;5051491;28;20472;-53
2023/09/07 03:03:08;;;;;;;36.20;34.50;;;23.80;96.70;;;;;;5051215;28;20515;-51
2023/09/07 03:05:37;;;;;;;35.77;33.73;;;23.80;96.60;;;;;;5051445;28;20519;-49
2023/09/07 03:08:04;;;;;;;36.77;35.07;;;23.80;96.70;;;;;;5051101;28;20503;-55
2023/09/07 03:10:31;;;;;;;38.63;36.53;;;23.70;96.70;;;;;;5044554;28;20518;-50
2023/09/07 03:12:58;;;;;;;36.00;34.10;;;23.70;96.70;;;;;;5051127;28;20472;-50
2023/09/07 03:15:25;;;;;;;38.30;36.40;;;23.70;96.80;;;;;;5051359;28;20475;-50
2023/09/07 03:17:51;;;;;;;38.60;36.60;;;23.70;96.80;;;;;;5050859;28;20503;-51
2023/09/07 03:20:19;;;;;;;38.77;36.90;;;23.70;96.90;;;;;;5050959;28;20484;-49
2023/09/07 03:22:48;;;;;;;39.03;36.97;;;23.70;96.90;;;;;;5051097;28;20445;-50
2023/09/07 03:25:15;;;;;;;36.53;34.63;;;23.70;96.90;;;;;;5051228;28;20703;-49
2023/09/07 03:27:42;;;;;;;36.13;34.03;;;23.70;97.00;;;;;;5050795;28;20926;-49
2023/09/07 03:30:09;;;;;;;37.73;35.63;;;23.70;97.10;;;;;;5050975;28;20503;-49
2023/09/07 03:32:36;;;;;;;37.37;35.47;;;23.60;97.00;;;;;;5051093;28;20533;-49
2023/09/07 03:35:06;;;;;;;35.87;34.07;;;23.60;96.90;;;;;;5051238;28;20472;-54
2023/09/07 03:37:33;;;;;;;38.00;36.00;;;23.60;96.80;;;;;;5043141;28;20526;-49
2023/09/07 03:40:05;;;;;;;35.90;34.00;;;23.60;96.80;;;;;;5051285;28;20471;-51
2023/09/07 03:42:32;;;;;;;35.63;33.70;;;23.60;96.90;;;;;;5042811;28;20943;-49
2023/09/07 03:44:58;;;;;;;35.30;33.30;;;23.60;96.80;;;;;;5051143;28;20876;-49
2023/09/07 03:47:28;;;;;;;36.10;34.20;;;23.60;96.70;;;;;;5050245;28;20516;-52
2023/09/07 03:49:55;;;;;;;36.93;34.97;;;23.60;96.80;;;;;;5051321;28;20916;-51
2023/09/07 03:52:24;;;;;;;37.60;35.60;;;23.60;96.80;;;;;;5050630;28;20502;-51
2023/09/07 03:54:51;;;;;;;35.60;33.80;;;23.60;96.60;;;;;;5052943;28;20444;-51
2023/09/07 03:57:19;;;;;;;37.70;35.73;;;23.50;96.60;;;;;;5054228;28;20517;-50
2023/09/07 03:59:46;;;;;;;36.67;34.87;;;23.50;96.60;;;;;;5054554;28;20483;-49
2023/09/07 04:02:13;;;;;;;38.63;36.30;;;23.50;96.50;;;;;;5054503;28;20472;-49
2023/09/07 04:04:41;;;;;;;40.97;38.73;;;23.50;96.60;;;;;;5054769;28;20475;-49
2023/09/07 04:07:08;;;;;;;39.80;37.80;;;23.50;96.50;;;;;;5054399;28;20518;-51
2023/09/07 04:09:35;;;;;;;39.90;37.90;;;23.50;96.40;;;;;;5054455;28;20965;-49
2023/09/07 04:12:03;;;;;;;40.00;37.93;;;23.50;96.50;;;;;;5054678;28;20440;-49
2023/09/07 04:14:31;;;;;;;41.27;39.13;;;23.50;96.40;;;;;;5054635;28;20447;-49
2023/09/07 04:16:58;;;;;;;41.50;39.40;;;23.40;96.30;;;;;;5053984;28;20500;-49
2023/09/07 04:19:25;;;;;;;39.07;36.97;;;23.40;96.30;;;;;;5054436;28;20476;-49
2023/09/07 04:21:52;;;;;;;40.47;38.17;;;23.40;96.30;;;;;;5054313;28;20464;-50
2023/09/07 04:24:19;;;;;;;40.90;38.57;;;23.40;96.70;;;;;;5054089;28;20491;-52
2023/09/07 04:26:46;;;;;;;40.23;37.80;;;23.40;97.40;;;;;;5053921;28;20506;-51
2023/09/07 04:29:13;;;;;;;40.40;37.90;;;23.40;97.90;;;;;;5054199;28;20472;-49
2023/09/07 04:31:41;;;;;;;39.90;37.47;;;23.40;98.80;;;;;;5054295;28;20471;-52
2023/09/07 04:34:08;;;;;;;39.50;37.30;;;23.40;98.80;;;;;;5053985;28;20472;-52
2023/09/07 04:36:35;;;;;;;37.23;35.33;;;23.40;98.70;;;;;;5054062;28;20460;-49
2023/09/07 04:39:03;;;;;;;39.10;36.70;;;23.40;98.40;;;;;;5054191;28;20459;-51
2023/09/07 04:41:30;;;;;;;43.23;40.90;;;23.30;98.30;;;;;;5053503;28;20448;-51
2023/09/07 04:43:58;;;;;;;39.60;36.60;;;23.30;98.80;;;;;;5054024;28;20451;-54
2023/09/07 04:46:24;;;;;;;38.00;35.90;;;23.40;99.20;;;;;;5053541;28;20476;-53
2023/09/07 04:48:53;;;;;;;39.17;37.07;;;23.40;98.60;;;;;;5053767;28;20498;-51
2023/09/07 04:51:21;;;;;;;39.07;36.73;;;23.40;98.40;;;;;;5053410;28;20483;-54
2023/09/07 04:53:48;;;;;;;39.40;37.27;;;23.40;98.00;;;;;;5053809;28;20770;-54
2023/09/07 04:56:16;;;;;;;38.97;36.87;;;23.50;97.80;;;;;;5053649;28;20494;-55
2023/09/07 04:58:42;;;;;;;37.00;34.80;;;23.50;97.70;;;;;;5053619;28;20547;-57
2023/09/07 05:01:12;;;;;;;37.53;35.53;;;23.50;97.50;;;;;;5053311;28;20907;-55
2023/09/07 05:03:40;;;;;;;39.23;36.83;;;23.50;97.20;;;;;;5053597;28;20472;-54
2023/09/07 05:06:08;;;;;;;39.10;37.00;;;23.50;97.10;;;;;;5052709;28;20448;-56
2023/09/07 05:08:35;;;;;;;37.20;35.20;;;23.60;97.00;;;;;;5053451;28;20487;-53
2023/09/07 05:11:04;;;;;;;36.73;34.73;;;23.60;97.00;;;;;;5053272;28;20468;-51
2023/09/07 05:13:32;;;;;;;37.70;35.80;;;23.60;96.80;;;;;;5053639;28;20467;-58
2023/09/07 05:16:01;;;;;;;38.33;36.33;;;23.60;96.80;;;;;;5053476;28;20479;-51
2023/09/07 05:18:28;;;;;;;38.17;35.80;;;23.60;96.80;;;;;;5053217;28;20841;-52
2023/09/07 05:20:54;;;;;;;38.73;36.50;;;23.60;96.60;;;;;;5052953;28;20473;-55
2023/09/07 05:23:25;;;;;;;37.73;35.73;;;23.60;96.60;;;;;;5053094;28;20475;-50
2023/09/07 05:25:54;;;;;;;37.90;35.90;;;23.60;96.50;;;;;;5053312;28;20450;-51
2023/09/07 05:28:22;;;;;;;39.03;36.73;;;23.60;96.40;;;;;;5053234;28;20518;-50
2023/09/07 05:30:50;;;;;;;37.83;35.87;;;23.60;96.40;;;;;;5052977;28;20476;-51
2023/09/07 05:33:18;;;;;;;36.80;34.70;;;23.60;96.50;;;;;;5052832;28;20928;-50
2023/09/07 05:35:46;;;;;;;39.90;37.90;;;23.60;96.40;;;;;;5053076;28;20536;-50
2023/09/07 05:38:14;;;;;;;37.63;35.73;;;23.60;96.40;;;;;;5052823;28;21237;-50
2023/09/07 05:40:43;;;;;;;38.00;36.10;;;23.60;96.30;;;;;;5052981;28;20472;-50
2023/09/07 05:43:10;;;;;;;37.10;34.97;;;23.60;96.30;;;;;;5052511;28;20939;-51
2023/09/07 05:45:39;;;;;;;36.30;34.30;;;23.60;96.30;;;;;;5052973;28;20494;-50
2023/09/07 05:48:07;;;;;;;37.53;35.43;;;23.70;96.30;;;;;;5052553;28;20519;-50
2023/09/07 05:50:35;;;;;;;38.00;35.90;;;23.70;96.30;;;;;;5052562;28;20472;-54
2023/09/07 05:53:02;;;;;;;37.97;36.00;;;23.70;96.40;;;;;;5052505;28;20475;-52
2023/09/07 05:55:29;;;;;;;38.47;36.37;;;23.70;96.40;;;;;;5052768;28;20472;-52
2023/09/07 05:57:58;;;;;;;38.43;36.40;;;23.70;96.30;;;;;;5052617;28;20907;-56
2023/09/07 06:00:25;;;;;;;36.43;34.53;;;23.70;96.50;;;;;;5052471;28;20484;-53
2023/09/07 06:02:52;;;;;;;39.33;37.30;;;23.70;96.30;;;;;;5052350;28;20472;-53
2023/09/07 06:05:19;;;;;;;38.83;36.83;;;23.70;96.50;;;;;;5052314;28;20475;-53
2023/09/07 06:07:46;;;;;;;38.17;36.27;;;23.70;96.40;;;;;;5052331;28;20483;-53
2023/09/07 06:10:13;;;;;;;40.43;38.43;;;23.70;96.30;;;;;;5052347;28;20475;-51
2023/09/07 06:12:40;;;;;;;39.30;37.20;;;23.70;96.50;;;;;;5052082;28;20818;-53
2023/09/07 06:15:10;;;;;;;39.20;36.93;;;23.70;96.40;;;;;;5052228;28;20483;-50
2023/09/07 06:17:37;;;;;;;41.13;38.73;;;23.70;96.50;;;;;;5043981;28;20506;-50
2023/09/07 06:20:05;;;;;;;37.30;35.50;;;23.70;96.40;;;;;;5052186;28;20472;-50
2023/09/07 06:22:32;;;;;;;39.37;37.13;;;23.70;96.40;;;;;;5051729;28;20559;-53
2023/09/07 06:24:59;;;;;;;39.97;38.07;;;23.70;96.40;;;;;;5052077;28;20479;-51
2023/09/07 06:27:26;;;;;;;38.17;36.00;;;23.70;96.50;;;;;;5051761;28;20512;-50
2023/09/07 06:29:53;;;;;;;39.63;37.30;;;23.70;96.40;;;;;;5051997;28;20441;-53
2023/09/07 06:32:21;;;;;;;39.00;37.00;;;23.70;96.30;;;;;;5051622;28;20490;-50
2023/09/07 06:34:47;;;;;;;40.73;38.60;;;23.70;96.30;;;;;;5051873;28;20476;-52
2023/09/07 06:37:14;;;;;;;40.90;38.87;;;23.70;96.40;;;;;;5051515;28;20542;-53
2023/09/07 06:39:43;;;;;;;38.80;36.80;;;23.80;96.50;;;;;;5051807;28;20230;-55
2023/09/07 06:42:10;;;;;;;39.13;36.73;;;23.70;96.40;;;;;;5051518;28;20939;-57
2023/09/07 06:44:37;;;;;;;39.50;37.60;;;23.80;96.40;;;;;;5043525;28;20437;-52
2023/09/07 06:47:04;;;;;;;42.10;40.10;;;23.80;96.50;;;;;;5051496;28;20507;-53
2023/09/07 06:49:33;;;;;;;43.90;41.53;;;23.80;96.40;;;;;;5051579;28;20486;-58
2023/09/07 06:52:00;;;;;;;42.30;40.30;;;23.80;96.50;;;;;;5051167;28;20865;-53
2023/09/07 06:54:28;;;;;;;42.27;39.93;;;23.80;96.50;;;;;;5051372;28;20452;-50
2023/09/07 06:56:55;;;;;;;43.40;41.03;;;23.80;96.60;;;;;;5051318;28;20464;-53
2023/09/07 06:59:22;;;;;;;44.57;42.37;;;23.80;96.50;;;;;;5051426;28;20476;-56
2023/09/07 07:01:49;;;;;;;43.43;41.40;;;23.80;96.50;;;;;;5051251;28;20478;-54
2023/09/07 07:04:16;;;;;;;41.87;39.70;;;23.80;96.50;;;;;;5051362;28;20479;-50
2023/09/07 07:06:44;;;;;;;40.47;38.47;;;23.80;96.40;;;;;;5051246;28;20471;-54
2023/09/07 07:09:11;;;;;;;39.20;37.20;;;23.80;96.40;;;;;;5051503;28;20880;-57
2023/09/07 07:11:39;;;;;;;44.00;41.80;;;23.80;96.40;;;;;;5043020;28;20451;-55
2023/09/07 07:14:06;;;;;;;44.27;42.10;;;23.80;96.40;;;;;;5051416;28;20447;-57
2023/09/07 07:16:32;;;;;;;43.80;41.70;;;23.80;96.50;;;;;;5051136;28;20448;-57
2023/09/07 07:18:59;;;;;;;43.07;40.97;;;23.80;96.40;;;;;;5050968;28;21010;-56
2023/09/07 07:21:26;;;;;;;40.57;38.57;;;23.80;96.50;;;;;;5051034;28;20923;-50
2023/09/07 07:23:54;;;;;;;40.33;38.40;;;23.90;96.50;;;;;;5051185;28;21291;-57
2023/09/07 07:26:21;;;;;;;39.33;37.43;;;23.90;96.60;;;;;;5051101;28;20472;-59
2023/09/07 07:28:48;;;;;;;40.57;38.57;;;23.90;96.50;;;;;;5052276;28;20512;-50
2023/09/07 07:31:15;;;;;;;41.63;39.53;;;23.80;96.50;;;;;;5057318;28;20531;-50
2023/09/07 07:33:42;;;;;;;41.13;39.13;;;23.90;96.70;;;;;;5057595;28;20475;-54
2023/09/07 07:36:09;;;;;;;41.40;39.20;;;23.90;96.80;;;;;;5057676;28;20444;-51
2023/09/07 07:38:36;;;;;;;41.10;39.00;;;23.90;96.50;;;;;;5057419;28;20882;-55
2023/09/07 07:41:05;;;;;;;38.43;36.53;;;23.90;96.50;;;;;;5057482;28;21030;-52
2023/09/07 07:43:33;;;;;;;40.37;38.30;;;23.90;96.90;;;;;;5057441;28;20472;-57
2023/09/07 07:46:00;;;;;;;39.90;37.90;;;23.90;96.50;;;;;;5057458;28;20490;-53
2023/09/07 07:48:28;;;;;;;41.73;39.73;;;23.90;96.50;;;;;;5057496;28;20484;-50
2023/09/07 07:50:55;;;;;;;41.77;39.77;;;23.90;96.70;;;;;;5057183;28;20467;-52
2023/09/07 07:53:22;;;;;;;41.93;39.90;;;23.90;96.60;;;;;;5057422;28;20471;-55
2023/09/07 07:55:49;;;;;;;41.43;39.43;;;23.90;96.60;;;;;;5057699;28;20523;-50
2023/09/07 07:58:17;;;;;;;42.93;40.83;;;23.90;96.60;;;;;;5057489;28;20492;-50
2023/09/07 08:00:47;;;;;;;42.67;40.67;;;23.90;96.60;;;;;;5057461;28;20928;-56
2023/09/07 08:03:14;;;;;;;40.93;39.03;;;23.90;96.60;;;;;;5057476;28;20447;-57
2023/09/07 08:05:41;;;;;;;41.07;39.10;;;23.90;96.60;;;;;;5049599;28;20947;-51
2023/09/07 08:08:08;;;;;;;38.00;36.13;;;23.90;96.60;;;;;;5057288;28;20476;-52
2023/09/07 08:10:36;;;;;;;40.10;38.13;;;23.90;96.60;;;;;;5057255;28;20493;-53
2023/09/07 08:13:04;;;;;;;41.40;39.40;;;24.00;96.60;;;;;;5057131;28;20475;-51
2023/09/07 08:15:33;;;;;;;40.40;38.50;;;24.00;96.70;;;;;;5057323;28;20479;-55
2023/09/07 08:18:00;;;;;;;40.37;38.07;;;24.00;96.60;;;;;;5090674;22;20545;-49
2023/09/07 08:20:27;;;;;;;44.33;42.23;;;24.00;96.60;;;;;;5077223;28;20469;-54
2023/09/07 08:22:54;;;;;;;40.77;38.87;;;24.00;96.70;;;;;;5077243;28;20468;-52
2023/09/07 08:25:21;;;;;;;39.97;37.77;;;24.00;96.70;;;;;;5077171;28;20470;-49
2023/09/07 08:27:49;;;;;;;38.50;36.60;;;24.00;96.80;;;;;;5070037;28;20484;-49
2023/09/07 08:30:18;;;;;;;39.50;37.40;;;24.00;96.80;;;;;;5056951;28;20448;-49
2023/09/07 08:32:47;;;;;;;40.40;38.27;;;24.00;96.80;;;;;;5056953;28;20871;-51
2023/09/07 08:35:15;;;;;;;39.97;37.87;;;24.00;96.90;;;;;;5057101;28;20451;-58
2023/09/07 08:37:41;;;;;;;39.70;37.70;;;24.10;96.90;;;;;;5057028;28;20460;-58
2023/09/07 08:40:11;;;;;;;40.37;38.40;;;24.10;96.90;;;;;;5056044;28;20481;-56
2023/09/07 08:42:38;;;;;;;42.70;40.50;;;24.10;96.90;;;;;;5052946;28;20472;-58
2023/09/07 08:45:07;;;;;;;40.90;38.80;;;24.10;97.00;;;;;;5053956;28;20494;-55
2023/09/07 08:47:36;;;;;;;44.57;42.37;;;24.10;96.90;;;;;;5053590;28;20487;-56
2023/09/07 08:50:07;;;;;;;41.10;39.10;;;24.10;97.00;;;;;;5053777;28;20494;-53
2023/09/07 08:52:35;;;;;;;41.43;39.40;;;24.10;97.00;;;;;;5053606;28;20440;-57
2023/09/07 08:55:04;;;;;;;39.80;37.80;;;24.10;97.00;;;;;;5053710;28;20476;-57
2023/09/07 08:57:32;;;;;;;41.63;39.60;;;24.10;96.90;;;;;;5053508;28;20456;-56
2023/09/07 08:59:59;;;;;;;42.77;40.63;;;24.10;97.00;;;;;;5053868;28;20442;-56
2023/09/07 09:02:26;;;;;;;41.50;39.50;;;24.10;97.00;;;;;;5053353;28;20472;-58
2023/09/07 09:04:54;;;;;;;38.47;36.57;;;24.10;97.10;;;;;;5053570;28;20460;-56
2023/09/07 09:07:22;;;;;;;38.50;36.50;;;24.10;97.00;;;;;;5053277;28;20813;-56
2023/09/07 09:09:49;;;;;;;38.53;36.40;;;24.20;96.90;;;;;;5053442;28;20535;-57
2023/09/07 09:12:16;;;;;;;40.40;38.40;;;24.20;97.00;;;;;;5053252;28;20817;-58
2023/09/07 09:14:45;;;;;;;39.97;37.87;;;24.20;97.00;;;;;;5045520;28;20471;-57
2023/09/07 09:17:16;;;;;;;40.23;38.10;;;24.20;96.90;;;;;;5053218;28;20968;-56
2023/09/07 09:19:43;;;;;;;44.23;41.93;;;24.20;96.90;;;;;;5045174;28;20456;-58
2023/09/07 09:22:10;;;;;;;45.00;42.80;;;24.20;96.90;;;;;;5053003;28;20479;-58
2023/09/07 09:24:39;;;;;;;42.17;40.07;;;24.20;96.80;;;;;;5053028;28;20479;-53
2023/09/07 09:27:06;;;;;;;41.60;39.57;;;24.20;96.80;;;;;;5053090;28;20932;-56
2023/09/07 09:29:34;;;;;;;41.93;39.93;;;24.20;96.80;;;;;;5052902;28;20631;-58
2023/09/07 09:32:04;;;;;;;41.40;39.33;;;24.20;96.80;;;;;;5052869;28;20459;-58
2023/09/07 09:34:34;;;;;;;40.87;38.77;;;24.20;96.70;;;;;;5053136;28;20899;-57
2023/09/07 09:37:03;;;;;;;41.27;39.27;;;24.20;96.80;;;;;;5052873;28;20448;-55
2023/09/07 09:39:30;;;;;;;43.37;41.27;;;24.20;96.80;;;;;;5052914;28;20436;-56
2023/09/07 09:41:59;;;;;;;40.37;38.47;;;24.20;96.70;;;;;;5052979;28;21249;-58
2023/09/07 09:44:26;;;;;;;40.47;38.37;;;24.30;96.70;;;;;;5052785;28;20506;-58
2023/09/07 09:46:55;;;;;;;43.10;40.93;;;24.20;96.60;;;;;;5052855;28;20821;-55
2023/09/07 09:49:22;;;;;;;42.23;40.13;;;24.20;96.70;;;;;;5052392;28;20480;-57
2023/09/07 09:51:50;;;;;;;42.13;40.03;;;24.30;96.70;;;;;;5052230;28;20440;-58
2023/09/07 09:54:18;;;;;;;43.00;40.90;;;24.30;96.70;;;;;;5052906;28;20815;-58
2023/09/07 09:56:45;;;;;;;41.20;39.00;;;24.30;96.60;;;;;;5044654;28;20440;-57
2023/09/07 09:59:14;;;;;;;43.00;40.50;;;24.30;96.50;;;;;;5052574;28;20456;-55
2023/09/07 10:01:46;;;;;;;43.07;40.87;;;24.30;96.50;;;;;;5052334;28;20475;-57
2023/09/07 10:04:16;;;;;;;41.80;39.60;;;24.30;96.50;;;;;;5052664;28;20531;-58
2023/09/07 10:06:54;;;;;;;41.57;39.33;;;24.30;96.40;;;;;;5044129;28;20440;-58
2023/09/07 10:09:21;;;;;;;41.80;39.60;;;24.30;96.50;;;;;;5052199;28;20490;-56
2023/09/07 10:11:54;;;;;;;39.73;37.73;;;24.30;96.50;;;;;;5052211;28;20468;-56
2023/09/07 10:14:22;;;;;;;42.00;39.90;;;24.30;96.40;;;;;;5052178;28;20515;-58
2023/09/07 10:16:51;;;;;;;41.63;39.40;;;24.30;96.50;;;;;;5052273;28;20436;-56
2023/09/07 10:19:19;;;;;;;40.80;38.70;;;24.40;96.50;;;;;;5052242;28;20468;-58
2023/09/07 10:21:46;;;;;;;42.47;40.20;;;24.40;96.60;;;;;;5044042;28;20810;-58
2023/09/07 10:24:24;;;;;;;41.50;39.30;;;24.40;96.70;;;;;;5052293;28;20472;-57
2023/09/07 10:26:57;;;;;;;42.37;40.27;;;24.40;96.60;;;;;;5044855;28;20439;-56
2023/09/07 10:29:26;;;;;;;42.20;40.10;;;24.40;96.50;;;;;;5051937;28;21021;-56
2023/09/07 10:31:53;;;;;;;42.40;40.30;;;24.40;96.50;;;;;;5051740;28;20468;-56
2023/09/07 10:34:22;;;;;;;42.47;40.37;;;24.40;96.50;;;;;;5051776;28;20811;-58
2023/09/07 10:36:52;;;;;;;43.20;41.00;;;24.40;96.40;;;;;;5052048;28;20445;-58
2023/09/07 10:39:19;;;;;;;43.60;41.40;;;24.40;96.40;;;;;;5051887;28;20464;-58
2023/09/07 10:41:47;;;;;;;43.33;41.13;;;24.40;96.40;;;;;;5043568;28;20474;-56
2023/09/07 10:44:14;;;;;;;45.00;42.80;;;24.50;96.50;;;;;;5051918;28;20876;-57
2023/09/07 10:46:43;;;;;;;43.00;40.70;;;24.40;96.50;;;;;;5051618;28;20468;-56
2023/09/07 10:49:12;;;;;;;44.97;42.67;;;24.50;96.50;;;;;;5051465;28;20511;-54
2023/09/07 10:51:44;;;;;;;44.77;42.47;;;24.50;96.50;;;;;;5051569;28;20506;-55
2023/09/07 10:54:18;;;;;;;47.13;44.63;;;24.50;96.40;;;;;;5051648;28;20468;-58
2023/09/07 10:56:46;;;;;;;43.50;41.30;;;24.50;96.50;;;;;;5051371;28;20475;-58
2023/09/07 10:59:14;;;;;;;44.00;41.80;;;24.50;96.50;;;;;;5051488;28;20460;-57
2023/09/07 11:01:42;;;;;;;43.97;41.77;;;24.50;96.50;;;;;;5051092;28;20476;-56
2023/09/07 11:04:11;;;;;;;42.77;40.37;;;24.50;96.40;;;;;;5050927;28;20476;-56
2023/09/07 11:06:38;;;;;;;45.50;43.20;;;24.50;96.40;;;;;;5051419;28;21023;-55
2023/09/07 11:09:08;;;;;;;43.93;41.73;;;24.50;96.40;;;;;;5051300;28;20484;-58
2023/09/07 11:11:36;;;;;;;40.67;38.60;;;24.50;96.40;;;;;;5051187;28;20518;-57
2023/09/07 11:14:04;;;;;;;42.63;40.53;;;24.60;96.40;;;;;;5051297;28;20443;-56
2023/09/07 11:16:32;;;;;;;44.10;41.90;;;24.60;96.30;;;;;;5050314;28;20456;-56
2023/09/07 11:19:04;;;;;;;47.00;44.70;;;24.60;96.40;;;;;;5045040;28;20561;-56
2023/09/07 11:21:32;;;;;;;46.47;44.17;;;24.60;96.30;;;;;;5050765;28;20831;-56
2023/09/07 11:23:59;;;;;;;47.17;44.70;;;24.60;96.60;;;;;;5044695;28;20456;-55
2023/09/07 11:26:26;;;;;;;49.70;47.10;;;24.60;96.80;;;;;;5050110;28;20487;-55
2023/09/07 11:28:53;;;;;;;47.20;45.00;;;24.60;96.60;;;;;;5050979;28;20507;-57
2023/09/07 11:31:21;;;;;;;47.20;44.90;;;24.60;96.40;;;;;;5050917;28;20834;-54
2023/09/07 11:33:49;;;;;;;49.60;46.57;;;24.70;96.40;;;;;;5042926;28;20440;-58
2023/09/07 11:36:17;;;;;;;43.93;41.73;;;24.70;96.30;;;;;;5051100;28;20931;-56
2023/09/07 11:38:45;;;;;;;46.90;44.30;;;24.70;96.40;;;;;;5050991;28;20491;-56
2023/09/07 11:41:12;;;;;;;44.97;42.77;;;24.70;96.40;;;;;;5050801;28;20456;-57
2023/09/07 11:43:41;;;;;;;45.87;43.57;;;24.70;96.40;;;;;;5050925;28;20472;-58
2023/09/07 11:46:08;;;;;;;47.23;45.03;;;24.70;96.30;;;;;;5050910;28;20456;-55
2023/09/07 11:48:35;;;;;;;47.30;45.00;;;24.70;96.30;;;;;;5051054;28;20512;-56
2023/09/07 11:51:02;;;;;;;45.47;43.23;;;24.70;96.40;;;;;;5050811;28;20535;-57
2023/09/07 11:53:31;;;;;;;46.83;44.63;;;24.80;96.50;;;;;;5050847;28;20468;-57
2023/09/07 11:55:58;;;;;;;44.87;42.57;;;24.80;96.60;;;;;;5050990;28;20479;-57
2023/09/07 11:58:26;;;;;;;48.30;45.57;;;24.80;96.50;;;;;;5050760;28;21132;-57
2023/09/07 12:00:54;;;;;;;44.90;42.70;;;24.80;96.40;;;;;;5050740;28;20445;-56
2023/09/07 12:03:21;;;;;;;47.07;44.73;;;24.80;96.40;;;;;;5050958;28;20452;-55
2023/09/07 12:05:48;;;;;;;44.37;42.17;;;24.90;96.40;;;;;;5050854;28;20448;-55
2023/09/07 12:08:15;;;;;;;46.57;44.27;;;24.90;96.30;;;;;;5050612;28;20495;-56
2023/09/07 12:10:43;;;;;;;45.63;43.43;;;24.90;96.30;;;;;;5050603;28;20829;-57
2023/09/07 12:13:10;;;;;;;45.10;42.87;;;24.90;96.40;;;;;;5050602;28;20478;-55
2023/09/07 12:15:37;;;;;;;47.07;44.77;;;24.90;96.30;;;;;;5052196;28;20498;-55
2023/09/07 12:18:05;;;;;;;45.30;43.00;;;25.00;96.30;;;;;;5054376;28;20496;-57
2023/09/07 12:20:31;;;;;;;43.63;41.43;;;25.00;96.30;;;;;;5054307;28;20436;-57
2023/09/07 12:22:58;;;;;;;45.17;42.87;;;25.00;96.30;;;;;;5054283;28;20471;-58
2023/09/07 12:25:26;;;;;;;45.97;43.67;;;25.00;96.20;;;;;;5054183;28;20476;-57
2023/09/07 12:27:54;;;;;;;48.03;45.73;;;25.00;96.20;;;;;;5054157;28;20460;-55
2023/09/07 12:30:23;;;;;;;47.80;45.50;;;25.00;96.30;;;;;;5054276;28;20479;-58